Time;durP1;ratioP1;P1;durP2;ratioP2;P2;SDS_P1;SDS_P2;PMS_P1;PMS_P2;Temp;Humidity;BMP_temperature;BMP_pressure;BME280_temperature;BME280_humidity;BME280_pressure;Samples;Min_cycle;Max_cycle;Signal;HPM_P1;HPM_P2
2023/03/27 00:01:04;;;;;;;2.40;0.63;;;;;;;;;;5076315;28;20024;-56
2023/03/27 00:03:30;;;;;;;0.52;0.22;;;;;;;;;;5077327;28;20047;-55
2023/03/27 00:06:01;;;;;;;2.20;0.75;;;;;;;;;;5077998;28;20024;-56
2023/03/27 00:08:27;;;;;;;0.68;0.40;;;;;;;;;;5077596;28;20029;-56
2023/03/27 00:10:54;;;;;;;0.20;0.10;;;;;;;;;;5078101;28;20021;-57
2023/03/27 00:13:19;;;;;;;0.40;0.30;;;;;;;;;;5077279;28;20056;-56
2023/03/27 00:15:45;;;;;;;0.77;0.30;;;;;;;;;;5077526;28;20048;-56
2023/03/27 00:18:12;;;;;;;0.93;0.40;;;;;;;;;;5077680;28;20024;-56
2023/03/27 00:20:38;;;;;;;1.20;0.50;;;;;;;;;;5077210;28;20367;-56
2023/03/27 00:23:05;;;;;;;0.60;0.30;;;;;;;;;;5077036;28;20028;-55
2023/03/27 00:25:32;;;;;;;0.80;0.60;;;;;;;;;;5077637;28;20032;-56
2023/03/27 00:27:58;;;;;;;0.57;0.30;;;;;;;;;;5077008;28;20032;-55
2023/03/27 00:30:29;;;;;;;0.98;0.50;;;;;;;;;;5076820;28;20032;-56
2023/03/27 00:32:56;;;;;;;1.05;0.65;;;;;;;;;;5076751;28;20032;-57
2023/03/27 00:35:22;;;;;;;2.13;1.00;;;;;;;;;;5077420;28;20052;-54
2023/03/27 00:37:48;;;;;;;1.40;0.75;;;;;;;;;;5076754;28;20040;-55
2023/03/27 00:40:17;;;;;;;1.40;0.70;;;;;;;;;;5077005;28;20516;-56
2023/03/27 00:42:46;;;;;;;1.38;0.88;;;;;;;;;;5076860;28;20033;-55
2023/03/27 00:45:23;;;;;;;1.50;0.90;;;;;;;;;;5077233;28;20035;-55
2023/03/27 00:47:55;;;;;;;2.08;1.40;;;;;;;;;;5076541;28;20065;-55
2023/03/27 00:50:24;;;;;;;1.98;1.23;;;;;;;;;;5076541;28;20474;-54
2023/03/27 00:52:52;;;;;;;1.60;0.90;;;;;;;;;;5076220;28;20056;-54
2023/03/27 00:55:20;;;;;;;1.83;1.00;;;;;;;;;;5077087;28;20086;-56
2023/03/27 00:57:48;;;;;;;2.45;1.92;;;;;;;;;;5076408;28;20075;-57
2023/03/27 01:00:15;;;;;;;1.65;1.25;;;;;;;;;;5076970;28;20100;-58
2023/03/27 01:02:43;;;;;;;1.70;0.95;;;;;;;;;;5075733;28;20029;-57
2023/03/27 01:05:09;;;;;;;1.98;1.02;;;;;;;;;;5076135;28;20039;-57
2023/03/27 01:07:36;;;;;;;1.55;0.82;;;;;;;;;;5076892;28;20056;-57
2023/03/27 01:10:03;;;;;;;1.77;0.45;;;;;;;;;;5076743;28;20075;-55
2023/03/27 01:12:29;;;;;;;2.95;0.90;;;;;;;;;;5077054;28;20438;-57
2023/03/27 01:15:07;;;;;;;1.58;0.80;;;;;;;;;;5076412;28;20097;-58
2023/03/27 01:17:45;;;;;;;2.28;1.05;;;;;;;;;;5076136;28;20020;-57
2023/03/27 01:20:23;;;;;;;1.33;0.82;;;;;;;;;;5076182;28;20029;-56
2023/03/27 01:23:02;;;;;;;1.20;0.77;;;;;;;;;;5075951;28;20033;-56
2023/03/27 01:25:40;;;;;;;1.58;0.70;;;;;;;;;;5076363;28;20032;-57
2023/03/27 01:28:26;;;;;;;0.70;0.65;;;;;;;;;;5075950;28;20077;-57
2023/03/27 01:30:55;;;;;;;1.98;1.27;;;;;;;;;;5075979;28;20024;-58
2023/03/27 01:33:43;;;;;;;1.30;0.88;;;;;;;;;;5075809;28;20025;-52
2023/03/27 01:36:33;;;;;;;1.05;0.60;;;;;;;;;;5075915;28;20363;-57
2023/03/27 01:38:59;;;;;;;1.00;0.60;;;;;;;;;;5076099;28;20116;-57
2023/03/27 01:41:34;;;;;;;0.95;0.60;;;;;;;;;;5075657;28;20028;-56
2023/03/27 01:44:06;;;;;;;0.70;0.35;;;;;;;;;;5075685;28;20024;-57
2023/03/27 01:46:46;;;;;;;0.77;0.40;;;;;;;;;;5075439;28;20474;-57
2023/03/27 01:49:13;;;;;;;1.40;0.95;;;;;;;;;;5075935;28;20473;-57
2023/03/27 01:51:41;;;;;;;2.30;1.30;;;;;;;;;;5075227;28;20029;-55
2023/03/27 01:54:14;;;;;;;1.73;1.10;;;;;;;;;;5075775;28;20028;-56
2023/03/27 01:56:44;;;;;;;1.23;1.00;;;;;;;;;;5076015;28;20103;-57
2023/03/27 01:59:15;;;;;;;0.98;0.63;;;;;;;;;;5075964;28;20362;-55
2023/03/27 02:01:43;;;;;;;1.63;1.20;;;;;;;;;;5075819;28;20466;-55
2023/03/27 02:04:11;;;;;;;1.17;0.90;;;;;;;;;;5075340;28;20036;-57
2023/03/27 02:06:40;;;;;;;3.90;1.48;;;;;;;;;;5075576;28;20048;-54
2023/03/27 02:09:24;;;;;;;1.40;1.02;;;;;;;;;;5075379;28;20029;-54
2023/03/27 02:11:56;;;;;;;2.03;0.93;;;;;;;;;;5075585;28;20060;-56
2023/03/27 02:14:30;;;;;;;1.88;1.10;;;;;;;;;;5075063;28;20115;-57
2023/03/27 02:16:57;;;;;;;1.33;0.80;;;;;;;;;;5075317;28;20052;-57
2023/03/27 02:19:32;;;;;;;2.15;1.40;;;;;;;;;;5074956;28;20027;-57
2023/03/27 02:21:58;;;;;;;3.78;2.03;;;;;;;;;;5075402;28;20060;-54
2023/03/27 02:24:24;;;;;;;3.42;2.45;;;;;;;;;;5075397;28;20119;-56
2023/03/27 02:26:54;;;;;;;4.00;2.72;;;;;;;;;;5075409;28;20485;-57
2023/03/27 02:29:28;;;;;;;2.67;2.00;;;;;;;;;;5074474;28;20048;-55
2023/03/27 02:31:55;;;;;;;4.35;1.98;;;;;;;;;;5074736;28;20078;-57
2023/03/27 02:34:21;;;;;;;11.82;3.92;;;;;;;;;;5074189;28;20471;-55
2023/03/27 02:36:54;;;;;;;5.15;2.25;;;;;;;;;;5075211;28;20032;-56
2023/03/27 02:39:26;;;;;;;9.07;3.88;;;;;;;;;;5075085;28;20556;-56
2023/03/27 02:41:58;;;;;;;6.40;2.95;;;;;;;;;;5074468;28;20455;-56
2023/03/27 02:44:32;;;;;;;5.72;3.80;;;;;;;;;;5074495;28;20385;-56
2023/03/27 02:47:28;;;;;;;4.82;3.85;;;;;;;;;;5074908;28;20438;-57
2023/03/27 02:49:57;;;;;;;4.88;2.72;;;;;;;;;;5065478;28;20459;-56
2023/03/27 02:52:26;;;;;;;8.15;4.47;;;;;;;;;;5074007;28;20478;-56
2023/03/27 02:54:55;;;;;;;13.48;5.28;;;;;;;;;;5073969;28;20020;-56
2023/03/27 02:57:25;;;;;;;8.65;5.03;;;;;;;;;;5074720;28;20348;-56
2023/03/27 02:59:52;;;;;;;3.93;3.40;;;;;;;;;;5074695;28;20035;-55
2023/03/27 03:02:29;;;;;;;14.32;3.33;;;;;;;;;;5074104;28;20351;-55
2023/03/27 03:05:00;;;;;;;4.43;3.70;;;;;;;;;;5074374;28;20439;-56
2023/03/27 03:07:26;;;;;;;4.82;3.70;;;;;;;;;;5074694;28;20366;-56
2023/03/27 03:09:55;;;;;;;9.32;3.78;;;;;;;;;;5074018;28;20025;-54
2023/03/27 03:12:22;;;;;;;6.40;4.68;;;;;;;;;;5074825;28;20036;-57
2023/03/27 03:14:48;;;;;;;5.45;3.30;;;;;;;;;;5073739;28;20049;-57
2023/03/27 03:17:14;;;;;;;14.82;4.32;;;;;;;;;;5073970;28;20036;-57
2023/03/27 03:19:40;;;;;;;7.05;4.50;;;;;;;;;;5073916;28;20024;-57
2023/03/27 03:22:06;;;;;;;6.72;4.90;;;;;;;;;;5073855;28;20103;-56
2023/03/27 03:24:34;;;;;;;9.15;3.95;;;;;;;;;;5073896;28;20439;-54
2023/03/27 03:27:01;;;;;;;8.05;5.10;;;;;;;;;;5073212;28;20027;-57
2023/03/27 03:29:29;;;;;;;4.15;3.33;;;;;;;;;;5073794;28;20024;-57
2023/03/27 03:31:58;;;;;;;7.72;3.03;;;;;;;;;;5074016;28;20032;-57
2023/03/27 03:34:26;;;;;;;5.45;3.00;;;;;;;;;;5073751;28;20020;-55
2023/03/27 03:36:54;;;;;;;23.08;4.32;;;;;;;;;;5074318;28;20028;-56
2023/03/27 03:39:20;;;;;;;3.33;2.70;;;;;;;;;;5074556;28;20093;-57
2023/03/27 03:41:46;;;;;;;8.07;4.43;;;;;;;;;;5073988;28;20082;-55
2023/03/27 03:44:12;;;;;;;7.05;3.70;;;;;;;;;;5074239;28;20382;-57
2023/03/27 03:46:38;;;;;;;4.05;2.95;;;;;;;;;;5074578;28;20032;-53
2023/03/27 03:49:05;;;;;;;11.13;4.60;;;;;;;;;;5074492;28;20020;-57
2023/03/27 03:51:31;;;;;;;8.70;3.88;;;;;;;;;;5073629;28;20086;-55
2023/03/27 03:53:57;;;;;;;3.83;3.40;;;;;;;;;;5073673;28;20021;-54
2023/03/27 03:56:25;;;;;;;7.03;3.42;;;;;;;;;;5073721;28;20467;-57
2023/03/27 03:58:51;;;;;;;13.05;3.15;;;;;;;;;;5073589;28;20412;-55
2023/03/27 04:01:19;;;;;;;6.68;2.25;;;;;;;;;;5074250;28;20367;-56
2023/03/27 04:03:45;;;;;;;9.75;4.85;;;;;;;;;;5073375;28;20028;-56
2023/03/27 04:06:11;;;;;;;5.07;4.00;;;;;;;;;;5074001;28;20170;-54
2023/03/27 04:08:38;;;;;;;12.50;4.20;;;;;;;;;;5073431;28;20031;-54
2023/03/27 04:11:04;;;;;;;3.47;2.10;;;;;;;;;;5073162;28;20474;-55
2023/03/27 04:13:31;;;;;;;6.95;3.15;;;;;;;;;;5073432;28;20032;-57
2023/03/27 04:16:00;;;;;;;5.95;4.70;;;;;;;;;;5073655;28;20478;-55
2023/03/27 04:18:29;;;;;;;4.72;3.22;;;;;;;;;;5073911;28;20036;-56
2023/03/27 04:20:57;;;;;;;4.03;2.75;;;;;;;;;;5073909;28;20017;-56
2023/03/27 04:23:29;;;;;;;7.97;3.67;;;;;;;;;;5073307;28;20486;-57
2023/03/27 04:25:58;;;;;;;4.57;2.67;;;;;;;;;;5073961;28;20450;-56
2023/03/27 04:28:24;;;;;;;4.20;2.90;;;;;;;;;;5073369;28;20380;-56
2023/03/27 04:30:50;;;;;;;6.97;2.40;;;;;;;;;;5073537;28;20028;-57
2023/03/27 04:33:21;;;;;;;5.05;2.22;;;;;;;;;;5073221;28;20056;-57
2023/03/27 04:35:49;;;;;;;7.03;2.40;;;;;;;;;;5073285;28;20111;-55
2023/03/27 04:38:25;;;;;;;3.42;3.10;;;;;;;;;;5075302;28;20404;-54
2023/03/27 04:40:51;;;;;;;9.73;4.17;;;;;;;;;;5077052;28;20029;-56
2023/03/27 04:43:17;;;;;;;3.63;3.07;;;;;;;;;;5077264;28;20091;-55
2023/03/27 04:45:47;;;;;;;4.63;3.33;;;;;;;;;;5077398;28;20423;-55
2023/03/27 04:48:13;;;;;;;4.97;2.22;;;;;;;;;;5077299;28;20055;-56
2023/03/27 04:50:39;;;;;;;9.97;3.53;;;;;;;;;;5076679;28;20074;-55
2023/03/27 04:53:07;;;;;;;5.77;2.57;;;;;;;;;;5076678;28;20029;-56
2023/03/27 04:55:36;;;;;;;7.43;2.40;;;;;;;;;;5076882;28;20021;-57
2023/03/27 04:58:02;;;;;;;6.20;2.13;;;;;;;;;;5077084;28;20028;-56
2023/03/27 05:00:29;;;;;;;9.93;2.50;;;;;;;;;;5076554;28;20029;-57
2023/03/27 05:02:55;;;;;;;6.67;2.20;;;;;;;;;;5076401;28;20036;-54
2023/03/27 05:05:21;;;;;;;1.80;1.23;;;;;;;;;;5076742;28;20438;-51
2023/03/27 05:07:48;;;;;;;4.17;0.80;;;;;;;;;;5076409;28;20382;-52
2023/03/27 05:10:16;;;;;;;3.17;2.03;;;;;;;;;;5076795;28;20028;-52
2023/03/27 05:12:46;;;;;;;2.43;1.63;;;;;;;;;;5076261;28;20039;-55
2023/03/27 05:15:12;;;;;;;5.20;1.27;;;;;;;;;;5076489;28;20084;-50
2023/03/27 05:17:42;;;;;;;8.27;2.00;;;;;;;;;;5076187;28;20039;-54
2023/03/27 05:20:13;;;;;;;1.38;1.20;;;;;;;;;;5076110;28;20047;-54
2023/03/27 05:22:39;;;;;;;1.13;0.70;;;;;;;;;;5076355;28;20029;-53
2023/03/27 05:25:05;;;;;;;3.60;2.10;;;;;;;;;;5076728;28;20025;-54
2023/03/27 05:27:31;;;;;;;4.47;1.83;;;;;;;;;;5076026;28;20378;-56
2023/03/27 05:29:57;;;;;;;3.80;1.27;;;;;;;;;;5076295;28;20045;-51
2023/03/27 05:32:23;;;;;;;6.27;2.03;;;;;;;;;;5075846;28;20028;-53
2023/03/27 05:34:49;;;;;;;1.93;1.57;;;;;;;;;;5075963;28;20123;-56
2023/03/27 05:37:16;;;;;;;1.80;1.00;;;;;;;;;;5075832;28;20366;-55
2023/03/27 05:39:45;;;;;;;2.93;2.07;;;;;;;;;;5076281;28;20082;-55
2023/03/27 05:42:11;;;;;;;9.60;1.40;;;;;;;;;;5075691;28;20111;-52
2023/03/27 05:44:36;;;;;;;6.23;1.43;;;;;;;;;;5075726;28;20547;-55
2023/03/27 05:47:02;;;;;;;2.37;1.77;;;;;;;;;;5076047;28;20075;-55
2023/03/27 05:49:28;;;;;;;3.43;2.03;;;;;;;;;;5074629;28;20033;-53
2023/03/27 05:51:54;;;;;;;2.93;1.53;;;;;;;;;;5075669;28;20094;-56
2023/03/27 05:54:20;;;;;;;4.40;1.53;;;;;;;;;;5076121;28;20028;-54
2023/03/27 05:56:46;;;;;;;1.93;0.83;;;;;;;;;;5076076;28;20079;-55
2023/03/27 05:59:12;;;;;;;1.93;1.57;;;;;;;;;;5075500;28;20032;-54
2023/03/27 06:01:39;;;;;;;7.73;1.63;;;;;;;;;;5075331;28;20043;-52
2023/03/27 06:04:05;;;;;;;1.70;1.37;;;;;;;;;;5075319;28;20032;-52
2023/03/27 06:06:31;;;;;;;9.20;2.10;;;;;;;;;;5075669;28;20362;-51
2023/03/27 06:08:58;;;;;;;1.80;0.90;;;;;;;;;;5075167;28;20028;-52
2023/03/27 06:11:24;;;;;;;7.37;2.93;;;;;;;;;;5075083;28;20071;-52
2023/03/27 06:13:50;;;;;;;2.27;1.33;;;;;;;;;;5074719;28;20102;-53
2023/03/27 06:16:19;;;;;;;3.80;1.73;;;;;;;;;;5075604;28;20094;-53
2023/03/27 06:18:45;;;;;;;2.00;1.20;;;;;;;;;;5074996;28;20032;-53
2023/03/27 06:21:11;;;;;;;3.00;1.33;;;;;;;;;;5074717;28;20446;-55
2023/03/27 06:23:37;;;;;;;1.33;0.80;;;;;;;;;;5074886;28;20103;-53
2023/03/27 06:26:03;;;;;;;2.53;1.80;;;;;;;;;;5075230;28;20036;-54
2023/03/27 06:28:30;;;;;;;2.20;1.17;;;;;;;;;;5074834;28;20372;-56
2023/03/27 06:30:58;;;;;;;4.73;1.43;;;;;;;;;;5075427;28;20112;-53
2023/03/27 06:33:28;;;;;;;5.10;1.90;;;;;;;;;;5074694;28;20032;-56
2023/03/27 06:35:58;;;;;;;1.08;0.73;;;;;;;;;;5075561;28;20027;-52
2023/03/27 06:38:25;;;;;;;6.25;0.98;;;;;;;;;;5074959;28;20031;-55
2023/03/27 06:40:51;;;;;;;22.60;2.10;;;;;;;;;;5074855;28;20021;-52
2023/03/27 06:43:21;;;;;;;4.37;2.60;;;;;;;;;;5074162;28;20494;-54
2023/03/27 06:45:50;;;;;;;1.65;1.08;;;;;;;;;;5075590;28;20032;-55
2023/03/27 06:48:17;;;;;;;2.37;1.53;;;;;;;;;;5074437;28;20033;-52
2023/03/27 06:50:44;;;;;;;12.00;2.53;;;;;;;;;;5074417;28;20549;-53
2023/03/27 06:53:10;;;;;;;1.60;1.03;;;;;;;;;;5074401;28;20025;-53
2023/03/27 06:55:36;;;;;;;1.60;1.40;;;;;;;;;;5074385;28;20089;-53
2023/03/27 06:58:03;;;;;;;1.60;0.90;;;;;;;;;;5074252;28;20035;-54
2023/03/27 07:00:34;;;;;;;2.73;2.03;;;;;;;;;;5074346;28;20047;-50
2023/03/27 07:03:04;;;;;;;3.57;0.83;;;;;;;;;;5074317;28;20167;-50
2023/03/27 07:05:32;;;;;;;2.95;1.20;;;;;;;;;;5074520;28;20367;-55
2023/03/27 07:07:59;;;;;;;17.57;2.30;;;;;;;;;;5074645;28;20170;-51
2023/03/27 07:10:25;;;;;;;2.43;1.33;;;;;;;;;;5073952;28;20021;-54
2023/03/27 07:12:53;;;;;;;1.43;0.70;;;;;;;;;;5073957;28;20516;-54
2023/03/27 07:15:19;;;;;;;3.57;2.03;;;;;;;;;;5074035;28;20054;-52
2023/03/27 07:17:52;;;;;;;10.20;1.43;;;;;;;;;;5074001;28;20067;-54
2023/03/27 07:20:18;;;;;;;0.97;0.57;;;;;;;;;;5074077;28;20032;-54
2023/03/27 07:22:44;;;;;;;1.00;0.77;;;;;;;;;;5073909;28;20135;-54
2023/03/27 07:25:13;;;;;;;9.70;2.07;;;;;;;;;;5074240;28;20059;-56
2023/03/27 07:27:39;;;;;;;2.23;1.30;;;;;;;;;;5073742;28;20448;-51
2023/03/27 07:30:06;;;;;;;3.43;1.93;;;;;;;;;;5073989;28;20028;-55
2023/03/27 07:32:33;;;;;;;1.95;1.60;;;;;;;;;;5073727;28;20035;-54
2023/03/27 07:34:59;;;;;;;2.63;1.40;;;;;;;;;;5073841;28;20028;-51
2023/03/27 07:37:26;;;;;;;2.60;2.40;;;;;;;;;;5073829;28;20029;-55
2023/03/27 07:39:52;;;;;;;1.83;1.13;;;;;;;;;;5073787;28;20090;-53
2023/03/27 07:42:19;;;;;;;1.27;0.80;;;;;;;;;;5073713;28;20056;-52
2023/03/27 07:44:45;;;;;;;6.25;2.50;;;;;;;;;;5073689;28;20051;-53
2023/03/27 07:47:11;;;;;;;3.63;0.87;;;;;;;;;;5074333;28;20033;-52
2023/03/27 07:49:37;;;;;;;4.47;1.70;;;;;;;;;;5073639;28;20029;-54
2023/03/27 07:52:03;;;;;;;1.70;0.80;;;;;;;;;;5074189;28;20129;-55
2023/03/27 07:54:30;;;;;;;3.40;1.03;;;;;;;;;;5073274;28;20116;-53
2023/03/27 07:56:57;;;;;;;2.03;0.88;;;;;;;;;;5074178;28;20056;-52
2023/03/27 07:59:23;;;;;;;2.20;1.05;;;;;;;;;;5073561;28;20032;-54
2023/03/27 08:01:49;;;;;;;5.10;1.00;;;;;;;;;;5073767;28;20036;-53
2023/03/27 08:04:18;;;;;;;0.80;0.60;;;;;;;;;;5073622;28;20447;-53
2023/03/27 08:06:44;;;;;;;7.15;1.70;;;;;;;;;;5073886;28;20029;-53
2023/03/27 08:09:10;;;;;;;3.17;1.77;;;;;;;;;;5073932;28;20104;-50
2023/03/27 08:11:37;;;;;;;0.68;0.40;;;;;;;;;;5073253;28;20103;-55
2023/03/27 08:14:03;;;;;;;3.53;1.17;;;;;;;;;;5075814;28;20119;-51
2023/03/27 08:16:29;;;;;;;4.78;1.40;;;;;;;;;;5078050;28;20033;-55
2023/03/27 08:18:56;;;;;;;5.93;0.90;;;;;;;;;;5077945;28;20027;-51
2023/03/27 08:21:22;;;;;;;3.17;0.73;;;;;;;;;;5077856;28;20110;-56
2023/03/27 08:23:48;;;;;;;3.38;1.13;;;;;;;;;;5076621;28;20052;-54
2023/03/27 08:26:14;;;;;;;2.28;0.93;;;;;;;;;;5077905;28;20463;-52
2023/03/27 08:28:41;;;;;;;3.88;0.90;;;;;;;;;;5076773;28;20025;-56
2023/03/27 08:31:12;;;;;;;1.98;0.68;;;;;;;;;;5077567;28;20468;-56
2023/03/27 08:33:40;;;;;;;2.23;0.57;;;;;;;;;;5077541;28;20366;-56
2023/03/27 08:36:06;;;;;;;2.92;1.30;;;;;;;;;;5077369;28;20028;-57
2023/03/27 08:38:32;;;;;;;3.80;0.70;;;;;;;;;;5077011;28;20025;-50
2023/03/27 08:40:59;;;;;;;7.70;1.40;;;;;;;;;;5077434;28;20086;-55
2023/03/27 08:43:28;;;;;;;2.35;2.15;;;;;;;;;;5076448;28;20406;-57
2023/03/27 08:46:16;;;;;;;0.90;0.52;;;;;;;;;;5077381;28;20025;-52
2023/03/27 08:48:55;;;;;;;1.92;1.13;;;;;;;;;;5071543;28;20115;-56
2023/03/27 08:51:39;;;;;;;5.20;1.20;;;;;;;;;;5076740;28;20031;-57
2023/03/27 08:54:08;;;;;;;0.55;0.40;;;;;;;;;;5076604;28;20116;-55
2023/03/27 08:56:36;;;;;;;2.38;1.10;;;;;;;;;;5076447;28;20024;-56
2023/03/27 08:59:01;;;;;;;1.00;0.65;;;;;;;;;;5077104;28;20018;-55
2023/03/27 09:01:44;;;;;;;1.45;0.70;;;;;;;;;;5076759;28;20055;-57
2023/03/27 09:04:18;;;;;;;2.65;1.05;;;;;;;;;;5076984;28;20110;-56
2023/03/27 09:06:48;;;;;;;1.85;1.10;;;;;;;;;;5076585;28;20024;-57
2023/03/27 09:09:22;;;;;;;2.70;0.95;;;;;;;;;;5076021;28;20021;-57
2023/03/27 09:11:55;;;;;;;0.13;0.13;;;;;;;;;;5076331;28;20029;-56
2023/03/27 09:14:29;;;;;;;2.55;1.33;;;;;;;;;;5076416;28;20045;-56
2023/03/27 09:16:56;;;;;;;7.03;1.27;;;;;;;;;;5076294;28;20378;-57
2023/03/27 09:19:36;;;;;;;1.63;0.95;;;;;;;;;;5076205;28;20020;-56
2023/03/27 09:22:07;;;;;;;4.10;1.10;;;;;;;;;;5077000;28;20324;-57
2023/03/27 09:24:40;;;;;;;2.92;0.70;;;;;;;;;;5075573;28;20098;-57
2023/03/27 09:27:16;;;;;;;1.30;0.95;;;;;;;;;;5076730;28;20051;-57
2023/03/27 09:29:42;;;;;;;8.82;2.30;;;;;;;;;;5075925;28;20056;-57
2023/03/27 09:32:13;;;;;;;1.63;0.68;;;;;;;;;;5075964;28;20036;-56
2023/03/27 09:34:40;;;;;;;6.97;0.88;;;;;;;;;;5076326;28;20067;-55
2023/03/27 09:37:10;;;;;;;2.60;0.98;;;;;;;;;;5076233;28;20082;-56
2023/03/27 09:39:38;;;;;;;0.80;0.60;;;;;;;;;;5076233;28;20367;-57
2023/03/27 09:42:15;;;;;;;3.85;1.35;;;;;;;;;;5076264;28;20037;-55
2023/03/27 09:44:42;;;;;;;2.58;0.50;;;;;;;;;;5075911;28;20477;-56
2023/03/27 09:47:11;;;;;;;2.35;1.30;;;;;;;;;;5075542;28;20361;-56
2023/03/27 09:49:38;;;;;;;2.53;0.30;;;;;;;;;;5075975;28;20028;-57
2023/03/27 09:52:04;;;;;;;2.17;1.10;;;;;;;;;;5075261;28;20082;-54
2023/03/27 09:54:48;;;;;;;4.53;1.08;;;;;;;;;;5076377;28;20056;-54
2023/03/27 09:57:14;;;;;;;1.67;0.75;;;;;;;;;;5076053;28;20393;-55
2023/03/27 09:59:55;;;;;;;1.70;0.70;;;;;;;;;;5075502;28;20463;-55
2023/03/27 10:02:22;;;;;;;8.32;1.05;;;;;;;;;;5075923;28;20037;-56
2023/03/27 10:04:58;;;;;;;6.72;1.40;;;;;;;;;;5075814;28;20423;-54
2023/03/27 10:07:25;;;;;;;4.20;1.48;;;;;;;;;;5075818;28;20366;-56
2023/03/27 10:10:11;;;;;;;0.82;0.45;;;;;;;;;;5075239;28;20025;-56
2023/03/27 10:12:38;;;;;;;1.52;0.52;;;;;;;;;;5075488;28;20036;-56
2023/03/27 10:15:23;;;;;;;2.08;0.15;;;;;;;;;;5075454;28;20048;-57
2023/03/27 10:17:50;;;;;;;0.82;0.57;;;;;;;;;;5075469;28;20028;-56
2023/03/27 10:20:17;;;;;;;1.10;0.47;;;;;;;;;;5075129;28;20086;-56
2023/03/27 10:22:50;;;;;;;1.65;0.75;;;;;;;;;;5075434;28;20036;-54
2023/03/27 10:25:21;;;;;;;3.92;1.15;;;;;;;;;;5075246;28;20454;-56
2023/03/27 10:27:47;;;;;;;;;;;;;;;;;;5075619;28;20033;-56
2023/03/27 10:30:29;;;;;;;0.75;0.40;;;;;;;;;;5075015;28;19958;-56
2023/03/27 10:32:55;;;;;;;0.85;0.55;;;;;;;;;;5075011;28;20032;-57
2023/03/27 10:35:27;;;;;;;2.38;0.65;;;;;;;;;;5075015;28;20112;-56
2023/03/27 10:37:54;;;;;;;1.48;0.57;;;;;;;;;;5074689;28;20025;-57
2023/03/27 10:40:24;;;;;;;4.75;0.90;;;;;;;;;;5075241;28;20024;-56
2023/03/27 10:42:50;;;;;;;0.98;0.50;;;;;;;;;;5074597;28;20077;-56
2023/03/27 10:45:18;;;;;;;1.63;0.65;;;;;;;;;;5074961;28;20025;-55
2023/03/27 10:47:47;;;;;;;1.33;0.90;;;;;;;;;;5074501;28;20371;-57
2023/03/27 10:50:18;;;;;;;0.75;0.55;;;;;;;;;;5074427;28;20028;-55
2023/03/27 10:52:44;;;;;;;2.03;1.13;;;;;;;;;;5074704;28;20044;-57
2023/03/27 10:55:22;;;;;;;3.20;0.90;;;;;;;;;;5074976;28;20036;-57
2023/03/27 10:57:53;;;;;;;1.42;0.60;;;;;;;;;;5074448;28;20033;-57
2023/03/27 11:00:21;;;;;;;4.30;1.23;;;;;;;;;;5075164;28;20034;-57
2023/03/27 11:03:00;;;;;;;5.82;1.05;;;;;;;;;;5075045;28;20032;-57
2023/03/27 11:05:36;;;;;;;1.13;0.60;;;;;;;;;;5074787;28;20464;-56
2023/03/27 11:08:28;;;;;;;2.38;0.75;;;;;;;;;;5074201;28;20158;-57
2023/03/27 11:10:56;;;;;;;5.20;0.82;;;;;;;;;;5072647;28;20036;-56
2023/03/27 11:13:30;;;;;;;3.83;1.05;;;;;;;;;;5074152;28;20485;-57
2023/03/27 11:16:02;;;;;;;0.88;0.45;;;;;;;;;;5074533;28;20044;-57
2023/03/27 11:18:36;;;;;;;6.38;0.75;;;;;;;;;;5074090;28;20106;-57
2023/03/27 11:21:04;;;;;;;1.98;0.65;;;;;;;;;;5074335;28;20032;-57
2023/03/27 11:23:39;;;;;;;3.60;0.85;;;;;;;;;;5072733;28;20085;-57
2023/03/27 11:26:07;;;;;;;2.35;1.30;;;;;;;;;;5074372;28;20358;-55
2023/03/27 11:28:40;;;;;;;3.53;0.57;;;;;;;;;;5073536;28;20032;-55
2023/03/27 11:31:22;;;;;;;5.80;1.05;;;;;;;;;;5074451;28;20153;-57
2023/03/27 11:34:06;;;;;;;3.03;0.70;;;;;;;;;;5074116;28;20048;-57
2023/03/27 11:36:48;;;;;;;1.30;0.57;;;;;;;;;;5073935;28;20531;-57
2023/03/27 11:39:17;;;;;;;2.30;0.70;;;;;;;;;;5074129;28;20039;-57
2023/03/27 11:41:45;;;;;;;3.15;0.55;;;;;;;;;;5074110;28;20023;-58
2023/03/27 11:44:11;;;;;;;0.60;0.28;;;;;;;;;;5074207;28;20025;-57
2023/03/27 11:46:56;;;;;;;1.33;0.73;;;;;;;;;;5074019;28;20029;-57
2023/03/27 11:49:33;;;;;;;5.38;0.80;;;;;;;;;;5073311;28;20032;-57
2023/03/27 11:51:59;;;;;;;1.45;0.55;;;;;;;;;;5073727;28;20032;-57
2023/03/27 11:54:28;;;;;;;1.17;0.43;;;;;;;;;;5073700;28;20024;-57
2023/03/27 11:56:56;;;;;;;1.42;1.00;;;;;;;;;;5074486;28;20089;-57
2023/03/27 11:59:29;;;;;;;0.43;0.30;;;;;;;;;;5073954;28;20029;-57
2023/03/27 12:02:09;;;;;;;1.17;0.90;;;;;;;;;;5072782;28;20119;-56
2023/03/27 12:04:35;;;;;;;1.30;0.80;;;;;;;;;;5073550;28;20039;-57
2023/03/27 12:07:01;;;;;;;5.32;0.73;;;;;;;;;;5073809;28;20028;-57
2023/03/27 12:09:33;;;;;;;2.40;0.50;;;;;;;;;;5073820;28;20401;-55
2023/03/27 12:12:13;;;;;;;4.10;0.60;;;;;;;;;;5074030;28;20078;-56
2023/03/27 12:14:42;;;;;;;1.75;1.13;;;;;;;;;;5073712;28;20050;-55
2023/03/27 12:17:17;;;;;;;1.77;1.17;;;;;;;;;;5073477;28;20032;-58
2023/03/27 12:19:58;;;;;;;3.00;1.35;;;;;;;;;;5073746;28;20100;-57
2023/03/27 12:22:24;;;;;;;1.23;0.68;;;;;;;;;;5073353;28;20025;-56
2023/03/27 12:24:59;;;;;;;1.27;1.08;;;;;;;;;;5073320;28;20110;-57
2023/03/27 12:27:36;;;;;;;1.67;0.38;;;;;;;;;;5073317;28;20108;-57
2023/03/27 12:30:08;;;;;;;3.55;0.93;;;;;;;;;;5073572;28;20032;-57
2023/03/27 12:32:59;;;;;;;1.23;0.57;;;;;;;;;;5073644;28;20107;-57
2023/03/27 12:35:28;;;;;;;2.67;0.77;;;;;;;;;;5073215;28;20053;-57
2023/03/27 12:37:59;;;;;;;3.40;0.30;;;;;;;;;;5073096;28;20107;-56
2023/03/27 12:40:38;;;;;;;1.05;0.60;;;;;;;;;;5073062;28;20021;-58
2023/03/27 12:43:20;;;;;;;2.75;0.85;;;;;;;;;;5073382;28;20024;-57
2023/03/27 12:46:04;;;;;;;1.52;0.90;;;;;;;;;;5073697;28;20021;-58
2023/03/27 12:48:30;;;;;;;1.00;0.45;;;;;;;;;;5073110;28;20025;-57
2023/03/27 12:50:57;;;;;;;1.35;0.52;;;;;;;;;;5073043;28;20367;-56
2023/03/27 12:53:26;;;;;;;2.47;0.75;;;;;;;;;;5073496;28;20378;-55
2023/03/27 12:56:15;;;;;;;0.65;0.30;;;;;;;;;;5073053;28;20028;-56
2023/03/27 12:58:42;;;;;;;2.78;0.70;;;;;;;;;;5067920;28;20098;-57
2023/03/27 13:01:09;;;;;;;1.20;0.47;;;;;;;;;;5076197;28;20377;-57
2023/03/27 13:03:44;;;;;;;5.13;0.93;;;;;;;;;;5076497;28;20458;-57
2023/03/27 13:06:17;;;;;;;4.32;0.52;;;;;;;;;;5075230;28;20091;-57
2023/03/27 13:08:51;;;;;;;1.52;0.50;;;;;;;;;;5076981;28;20062;-58
2023/03/27 13:11:23;;;;;;;1.48;0.52;;;;;;;;;;5076351;28;20024;-57
2023/03/27 13:14:09;;;;;;;2.47;0.90;;;;;;;;;;5076112;28;20036;-58
2023/03/27 13:16:54;;;;;;;0.90;0.55;;;;;;;;;;5075881;28;20161;-57
2023/03/27 13:19:29;;;;;;;0.75;0.38;;;;;;;;;;5076504;28;20517;-56
2023/03/27 13:22:10;;;;;;;4.80;0.90;;;;;;;;;;5076168;28;20031;-57
2023/03/27 13:24:52;;;;;;;3.60;0.63;;;;;;;;;;5076157;28;20028;-56
2023/03/27 13:27:36;;;;;;;3.05;1.08;;;;;;;;;;5076607;28;20366;-57
2023/03/27 13:30:03;;;;;;;0.75;0.32;;;;;;;;;;5076272;28;20024;-57
2023/03/27 13:32:32;;;;;;;2.50;0.63;;;;;;;;;;5076321;28;20062;-57
2023/03/27 13:35:03;;;;;;;2.20;0.93;;;;;;;;;;5075858;28;20112;-57
2023/03/27 13:37:29;;;;;;;0.75;0.70;;;;;;;;;;5075526;28;20021;-57
2023/03/27 13:39:56;;;;;;;1.42;0.50;;;;;;;;;;5075940;28;20043;-57
2023/03/27 13:42:27;;;;;;;1.08;0.85;;;;;;;;;;5075760;28;20459;-57
2023/03/27 13:44:53;;;;;;;;;;;;;;;;;;5076513;28;20036;-55
2023/03/27 13:47:25;;;;;;;2.50;0.85;;;;;;;;;;5075771;28;20266;-55
2023/03/27 13:50:10;;;;;;;4.30;1.20;;;;;;;;;;5075474;28;20029;-54
2023/03/27 13:52:48;;;;;;;4.20;1.15;;;;;;;;;;5075966;28;20427;-58
2023/03/27 13:55:16;;;;;;;1.35;0.77;;;;;;;;;;5076209;28;20027;-57
2023/03/27 13:57:55;;;;;;;4.72;1.20;;;;;;;;;;5075494;28;20485;-58
2023/03/27 14:00:24;;;;;;;2.08;0.80;;;;;;;;;;5075503;28;20052;-56
2023/03/27 14:03:09;;;;;;;3.35;1.23;;;;;;;;;;5075394;28;20077;-56
2023/03/27 14:06:07;;;;;;;1.48;0.82;;;;;;;;;;5075217;28;20037;-56
2023/03/27 14:08:45;;;;;;;6.20;1.73;;;;;;;;;;5052143;28;20063;-56
2023/03/27 14:11:24;;;;;;;2.58;1.63;;;;;;;;;;5074788;28;20021;-57
2023/03/27 14:14:09;;;;;;;5.20;0.93;;;;;;;;;;5074994;28;20447;-55
2023/03/27 14:16:54;;;;;;;4.07;1.35;;;;;;;;;;5075604;28;20146;-55
2023/03/27 14:19:20;;;;;;;5.53;2.30;;;;;;;;;;5075199;28;20044;-56
2023/03/27 14:21:52;;;;;;;2.58;1.00;;;;;;;;;;5074847;28;20032;-55
2023/03/27 14:24:24;;;;;;;1.75;1.05;;;;;;;;;;5074896;28;20027;-55
2023/03/27 14:26:52;;;;;;;2.30;1.40;;;;;;;;;;5075715;28;20132;-56
2023/03/27 14:29:20;;;;;;;4.25;1.77;;;;;;;;;;5074880;28;20095;-56
2023/03/27 14:31:46;;;;;;;2.83;1.15;;;;;;;;;;5074668;28;20082;-56
2023/03/27 14:34:12;;;;;;;2.55;1.20;;;;;;;;;;5074330;28;20451;-57
2023/03/27 14:36:40;;;;;;;2.63;1.27;;;;;;;;;;5075242;28;20064;-57
2023/03/27 14:39:21;;;;;;;3.65;1.38;;;;;;;;;;5074666;28;20032;-55
2023/03/27 14:41:58;;;;;;;8.00;1.35;;;;;;;;;;5073162;28;20028;-58
2023/03/27 14:44:24;;;;;;;1.20;0.90;;;;;;;;;;5074671;28;20029;-55
2023/03/27 14:46:53;;;;;;;5.47;1.10;;;;;;;;;;5074306;28;20025;-57
2023/03/27 14:49:21;;;;;;;1.73;0.85;;;;;;;;;;5074171;28;20025;-57
2023/03/27 14:51:49;;;;;;;1.35;0.93;;;;;;;;;;5075038;28;20438;-56
2023/03/27 14:54:25;;;;;;;1.92;0.90;;;;;;;;;;5074182;28;20462;-53
2023/03/27 14:56:52;;;;;;;2.97;1.48;;;;;;;;;;5075110;28;20063;-57
2023/03/27 14:59:20;;;;;;;2.78;1.42;;;;;;;;;;5074586;28;20090;-56
2023/03/27 15:01:47;;;;;;;2.17;1.33;;;;;;;;;;5074288;28;20028;-54